Indianapolis, IN

7:40 AM EST on February 01, 2015 (GMT -0500)
Eagle Creek | Change Station
CLOSE
Current Station
Airport
Location: Eagle Creek,
Elevation: 820 ft
Nearby Weather Stations

Elev 820 ft 39.83 °N, 86.30 °W | Updated 47 minutes ago

Overcast
Overcast
32 °F
Feels Like 25 °F
N
8
Wind Variable Wind from East

Today
High -- | Low -- °F
--% Chance of Precip.
Yesterday
High -- | Low -- °F
Precip. -- in
7:52 AM 6:03 PM
Waxing Gibbous, 95% visible
Pressure 30.00 in
Visibility 8.0 miles
Clouds Mostly Cloudy 11000 ft
Windchill 25 °F
Dew Point 29 °F
Humidity 88%
Rainfall 0.02 in
Snow Depth Not available.
UV 0 out of 12
Pollen .10 out of 12
Air Quality Not available.
Flu Activity Not available.
METAR KEYE 011153Z AUTO 09007KT 8SM BKN110 00/M02 A2997 RMK AO2 SLP157 60001 70013 I6000 T00001017 10000 21006 57037

More Conditions Fewer Conditions

Pressure 30.00 in
Visibility 8.0 miles
Clouds Mostly Cloudy 11000 ft
Windchill 25 °F
Dew Point 29 °F
Humidity 88%
Rainfall 0.02 in
Snow Depth Not available.
UV 0 out of 12
Pollen .10 out of 12
Air Quality Not available.
Flu Activity Not available.
METAR KEYE 011153Z AUTO 09007KT 8SM BKN110 00/M02 A2997 RMK AO2 SLP157 60001 70013 I6000 T00001017 10000 21006 57037

More Conditions Fewer Conditions

10-Day Weather Forecast

Almanac

Astronomy

Feb. 01, 2015 Rise Set
Actual Time
Civil Twilight
Nautical Twilight
Astronomical Twilight
Moon
Length of Visible Light
Length of Day
Tomorrow will be .
, % of the Moon is Illuminated

Today's Extremes

State Highs State Lows

Community

WunderPhotos

Upload Photos

1,792,353 photos uploaded!

WunderBlogs® & News

Nearby

Air Quality

  Air Quality AQ Index Pollutant
Not available.

Snow Depth

Station Depth Elevation

Earthquake Activity

City Distance Mag. Time & Date
Minimum magnitude displayed is 2.5.

Coastal Water Temperatures

Place Temperature

Nearby Weather Stations